createdAt,value
2017-12-29T00:00:21.737Z,27.1
2017-12-29T00:01:21.548Z,27
2017-12-29T00:02:19.710Z,27
2017-12-29T00:03:21.653Z,27
2017-12-29T00:04:20.008Z,27
2017-12-29T00:05:20.027Z,27
2017-12-29T00:06:19.913Z,27
2017-12-29T00:07:19.907Z,27.1
2017-12-29T00:08:20.153Z,27
2017-12-29T00:09:20.048Z,27
2017-12-29T00:10:22.234Z,27
2017-12-29T00:11:22.250Z,27.1
2017-12-29T00:12:20.237Z,27
2017-12-29T00:13:20.258Z,27
2017-12-29T00:14:20.439Z,27
2017-12-29T00:15:20.516Z,27
2017-12-29T00:16:20.354Z,27
2017-12-29T00:17:20.415Z,27
2017-12-29T00:18:22.588Z,27
2017-12-29T00:19:20.512Z,27
2017-12-29T00:20:20.837Z,27
2017-12-29T00:21:20.637Z,27
2017-12-29T00:22:20.882Z,27
2017-12-29T00:23:20.752Z,27
2017-12-29T00:24:22.682Z,27
2017-12-29T00:25:23.003Z,27
2017-12-29T00:26:20.838Z,27
2017-12-29T00:27:21.095Z,27
2017-12-29T00:28:22.842Z,27
2017-12-29T00:29:21.205Z,27
2017-12-29T00:30:21.285Z,27.1
2017-12-29T00:31:23.045Z,27.1
2017-12-29T00:32:23.342Z,27
2017-12-29T00:33:23.209Z,27
2017-12-29T00:34:23.491Z,27
2017-12-29T00:35:21.597Z,27
2017-12-29T00:36:23.696Z,27
2017-12-29T00:37:21.582Z,27
2017-12-29T00:38:23.771Z,27
2017-12-29T00:39:23.781Z,27.1
2017-12-29T00:40:21.657Z,27
2017-12-29T00:41:21.884Z,27
2017-12-29T00:42:21.769Z,27
2017-12-29T00:43:23.711Z,27
2017-12-29T00:44:22.056Z,27
2017-12-29T00:45:21.916Z,27
2017-12-29T00:46:24.108Z,27
2017-12-29T00:47:22.260Z,27
2017-12-29T00:48:22.083Z,27
2017-12-29T00:49:24.026Z,27.1
2017-12-29T00:50:22.401Z,27
2017-12-29T00:51:22.219Z,27
2017-12-29T00:52:22.333Z,27
2017-12-29T00:53:22.347Z,27.1
2017-12-29T00:54:24.532Z,27.1
2017-12-29T00:55:22.372Z,27
2017-12-29T00:56:22.617Z,27
2017-12-29T00:57:22.419Z,27
2017-12-29T00:58:24.380Z,27
2017-12-29T00:59:22.561Z,27
2017-12-29T01:00:24.598Z,27
2017-12-29T01:01:22.947Z,27
2017-12-29T01:02:22.686Z,27
2017-12-29T01:03:23.003Z,27
2017-12-29T01:04:22.857Z,27
2017-12-29T01:05:25.104Z,27
2017-12-29T01:06:22.977Z,27
2017-12-29T01:07:23.009Z,27
2017-12-29T01:08:23.250Z,27
2017-12-29T01:09:23.091Z,27
2017-12-29T01:10:23.375Z,27
2017-12-29T01:11:23.217Z,27
2017-12-29T01:12:25.129Z,27
2017-12-29T01:13:25.441Z,27
2017-12-29T01:14:23.370Z,27
2017-12-29T01:15:25.543Z,27
2017-12-29T01:16:23.822Z,27
2017-12-29T01:17:24.057Z,27
2017-12-29T01:18:23.592Z,27
2017-12-29T01:19:23.583Z,27
2017-12-29T01:20:23.895Z,27
2017-12-29T01:21:25.590Z,27
2017-12-29T01:22:23.919Z,27
2017-12-29T01:23:25.910Z,27
2017-12-29T01:24:25.928Z,27
2017-12-29T01:25:23.825Z,27
2017-12-29T01:26:24.084Z,27
2017-12-29T01:27:26.019Z,27
2017-12-29T01:28:24.160Z,27
2017-12-29T01:29:24.324Z,27
2017-12-29T01:30:24.344Z,27
2017-12-29T01:31:26.152Z,27
2017-12-29T01:32:24.468Z,27
2017-12-29T01:33:24.241Z,27
2017-12-29T01:34:24.513Z,27
2017-12-29T01:35:24.552Z,27
2017-12-29T01:36:26.505Z,27
2017-12-29T01:37:24.654Z,27
2017-12-29T01:38:24.516Z,27
2017-12-29T01:39:24.476Z,27
2017-12-29T01:40:24.559Z,27
2017-12-29T01:41:26.729Z,27
2017-12-29T01:42:24.887Z,27
2017-12-29T01:43:24.687Z,27
2017-12-29T01:44:24.835Z,27
2017-12-29T01:45:24.879Z,27
2017-12-29T01:46:26.853Z,27
2017-12-29T01:47:26.868Z,27
2017-12-29T01:48:24.954Z,27
2017-12-29T01:49:26.973Z,27
2017-12-29T01:50:24.952Z,27
2017-12-29T01:51:27.095Z,27
2017-12-29T01:52:27.193Z,27
2017-12-29T01:53:25.269Z,27
2017-12-29T01:54:25.120Z,27
2017-12-29T01:55:25.233Z,27
2017-12-29T01:56:25.192Z,27
2017-12-29T01:57:25.309Z,27
2017-12-29T01:58:25.272Z,27
2017-12-29T01:59:25.544Z,27
2017-12-29T02:00:27.330Z,27
2017-12-29T02:01:25.661Z,27
2017-12-29T02:02:25.497Z,27
2017-12-29T02:03:25.551Z,27
2017-12-29T02:04:27.705Z,27
2017-12-29T02:05:25.832Z,27
2017-12-29T02:06:25.713Z,27
2017-12-29T02:07:26.000Z,27
2017-12-29T02:08:26.392Z,27
2017-12-29T02:09:27.983Z,27
2017-12-29T02:10:25.883Z,27
2017-12-29T02:11:25.940Z,27
2017-12-29T02:12:25.953Z,27
2017-12-29T02:13:27.935Z,27
2017-12-29T02:14:27.999Z,27
2017-12-29T02:15:26.110Z,27
2017-12-29T02:16:28.117Z,27
2017-12-29T02:17:26.213Z,27
2017-12-29T02:18:26.481Z,27
2017-12-29T02:19:28.448Z,27
2017-12-29T02:20:26.533Z,26.9
2017-12-29T02:21:26.626Z,27
2017-12-29T02:22:26.463Z,27
2017-12-29T02:23:28.620Z,27
2017-12-29T02:24:26.795Z,27
2017-12-29T02:25:26.830Z,27
2017-12-29T02:26:28.850Z,27
2017-12-29T02:27:26.964Z,27
2017-12-29T02:28:28.957Z,27
2017-12-29T02:29:28.962Z,27
2017-12-29T02:30:29.051Z,27
2017-12-29T02:31:28.932Z,27
2017-12-29T02:32:27.216Z,27
2017-12-29T02:33:29.257Z,27
2017-12-29T02:34:27.115Z,27
2017-12-29T02:35:27.289Z,27
2017-12-29T02:36:29.249Z,27
2017-12-29T02:37:29.098Z,27
2017-12-29T02:38:29.388Z,27
2017-12-29T02:39:27.331Z,27
2017-12-29T02:40:27.563Z,27
2017-12-29T02:41:29.281Z,27
2017-12-29T02:42:29.363Z,27
2017-12-29T02:43:27.497Z,27
2017-12-29T02:44:29.733Z,27
2017-12-29T02:45:27.876Z,26.9
2017-12-29T02:46:27.758Z,27
2017-12-29T02:47:29.719Z,27
2017-12-29T02:48:27.818Z,27
2017-12-29T02:49:28.031Z,27
2017-12-29T02:50:30.055Z,27
2017-12-29T02:51:30.100Z,27
2017-12-29T02:52:28.011Z,26.9
2017-12-29T02:53:28.175Z,27
2017-12-29T02:54:28.143Z,26.9
2017-12-29T02:55:28.161Z,27
2017-12-29T02:56:30.347Z,27
2017-12-29T02:57:30.400Z,26.9
2017-12-29T02:58:28.258Z,27
2017-12-29T02:59:28.345Z,27
2017-12-29T03:00:30.600Z,27
2017-12-29T03:01:28.478Z,27
2017-12-29T03:02:28.769Z,27
2017-12-29T03:03:30.573Z,27
2017-12-29T03:04:28.938Z,27
2017-12-29T03:05:28.772Z,27
2017-12-29T03:06:28.838Z,27
2017-12-29T03:07:30.999Z,27
2017-12-29T03:08:28.889Z,27
2017-12-29T03:09:29.168Z,27
2017-12-29T03:10:28.999Z,27
2017-12-29T03:11:29.083Z,27
2017-12-29T03:12:29.373Z,27
2017-12-29T03:13:31.073Z,27
2017-12-29T03:14:29.223Z,26.9
2017-12-29T03:15:29.234Z,26.9
2017-12-29T03:16:29.284Z,26.9
2017-12-29T03:17:29.601Z,26.9
2017-12-29T03:18:29.625Z,26.9
2017-12-29T03:19:29.387Z,26.9
2017-12-29T03:20:31.595Z,26.9
2017-12-29T03:21:29.712Z,26.9
2017-12-29T03:22:29.779Z,26.9
2017-12-29T03:23:31.560Z,27
2017-12-29T03:24:29.735Z,27
2017-12-29T03:25:31.825Z,27
2017-12-29T03:26:29.896Z,27
2017-12-29T03:27:31.913Z,27
2017-12-29T03:28:31.905Z,27
2017-12-29T03:29:31.780Z,26.9
2017-12-29T03:30:31.848Z,27
2017-12-29T03:31:31.826Z,27
2017-12-29T03:32:29.923Z,27
2017-12-29T03:33:29.962Z,27
2017-12-29T03:34:30.259Z,26.9
2017-12-29T03:35:30.105Z,26.9
2017-12-29T03:36:30.150Z,27
2017-12-29T03:37:32.116Z,26.9
2017-12-29T03:38:30.279Z,27
2017-12-29T03:39:30.314Z,26.9
2017-12-29T03:40:30.378Z,26.9
2017-12-29T03:41:32.408Z,26.9
2017-12-29T03:42:32.412Z,26.9
2017-12-29T03:43:30.761Z,26.9
2017-12-29T03:44:30.822Z,26.9
2017-12-29T03:45:32.865Z,26.9
2017-12-29T03:46:32.956Z,26.9
2017-12-29T03:47:30.861Z,26.9
2017-12-29T03:48:30.854Z,26.9
2017-12-29T03:49:30.908Z,26.9
2017-12-29T03:50:30.971Z,26.9
2017-12-29T03:51:33.219Z,26.9
2017-12-29T03:52:31.030Z,26.9
2017-12-29T03:53:31.301Z,26.9
2017-12-29T03:54:31.175Z,26.9
2017-12-29T03:55:31.290Z,26.9
2017-12-29T03:56:33.469Z,26.9
2017-12-29T03:57:33.508Z,26.9
2017-12-29T03:58:31.402Z,26.9
2017-12-29T03:59:31.695Z,26.9
2017-12-29T04:00:31.749Z,26.9
2017-12-29T04:01:33.760Z,26.9
2017-12-29T04:02:31.653Z,26.9
2017-12-29T04:03:33.784Z,26.9
2017-12-29T04:04:31.760Z,26.9
2017-12-29T04:05:33.890Z,26.9
2017-12-29T04:06:33.944Z,26.9
2017-12-29T04:07:31.893Z,26.9
2017-12-29T04:08:34.097Z,26.9
2017-12-29T04:09:32.043Z,26.9
2017-12-29T04:10:34.264Z,26.9
2017-12-29T04:11:32.221Z,26.9
2017-12-29T04:12:34.401Z,26.9
2017-12-29T04:13:32.529Z,26.9
2017-12-29T04:14:34.572Z,26.9
2017-12-29T04:15:32.683Z,26.9
2017-12-29T04:16:32.553Z,26.9
2017-12-29T04:17:32.590Z,26.9
2017-12-29T04:18:32.832Z,26.9
2017-12-29T04:19:34.776Z,26.9
2017-12-29T04:20:32.864Z,26.9
2017-12-29T04:21:34.635Z,26.9
2017-12-29T04:22:32.748Z,26.9
2017-12-29T04:23:32.786Z,26.9
2017-12-29T04:24:34.928Z,26.9
2017-12-29T04:25:33.046Z,26.9
2017-12-29T04:26:32.865Z,26.9
2017-12-29T04:27:32.893Z,26.9
2017-12-29T04:28:33.147Z,26.9
2017-12-29T04:29:33.021Z,26.9
2017-12-29T04:30:33.040Z,26.9
2017-12-29T04:31:33.113Z,26.9
2017-12-29T04:32:33.377Z,26.9
2017-12-29T04:33:33.233Z,26.9
2017-12-29T04:34:33.291Z,26.9
2017-12-29T04:35:33.555Z,26.9
2017-12-29T04:36:35.348Z,26.9
2017-12-29T04:37:33.521Z,26.9
2017-12-29T04:38:33.505Z,26.9
2017-12-29T04:39:33.829Z,26.9
2017-12-29T04:40:33.872Z,26.9
2017-12-29T04:41:33.943Z,26.9
2017-12-29T04:42:33.832Z,26.9
2017-12-29T04:43:35.803Z,26.9
2017-12-29T04:44:34.148Z,26.9
2017-12-29T04:45:34.250Z,26.9
2017-12-29T04:46:36.283Z,26.9
2017-12-29T04:47:34.223Z,26.9
2017-12-29T04:48:34.426Z,26.9
2017-12-29T04:49:36.391Z,26.9
2017-12-29T04:50:34.530Z,26.9
2017-12-29T04:51:36.225Z,26.9
2017-12-29T04:52:34.335Z,26.9
2017-12-29T04:53:34.342Z,26.9
2017-12-29T04:54:34.420Z,26.9
2017-12-29T04:55:34.510Z,26.9
2017-12-29T04:56:36.628Z,26.9
2017-12-29T04:57:34.590Z,26.9
2017-12-29T04:58:34.594Z,26.9
2017-12-29T04:59:36.800Z,26.9
2017-12-29T05:00:36.884Z,26.9
2017-12-29T05:01:34.964Z,26.9
2017-12-29T05:02:34.874Z,26.9
2017-12-29T05:03:37.030Z,26.9
2017-12-29T05:04:34.991Z,26.9
2017-12-29T05:05:35.014Z,26.9
2017-12-29T05:06:35.308Z,26.9
2017-12-29T05:07:37.289Z,26.9
2017-12-29T05:08:35.408Z,26.9
2017-12-29T05:09:35.265Z,26.9
2017-12-29T05:10:35.346Z,26.9
2017-12-29T05:11:35.525Z,26.9
2017-12-29T05:12:35.658Z,26.9
2017-12-29T05:13:35.694Z,26.9
2017-12-29T05:14:35.524Z,26.8
2017-12-29T05:15:37.736Z,26.8
2017-12-29T05:16:35.603Z,26.8
2017-12-29T05:17:37.862Z,26.8
2017-12-29T05:18:35.947Z,26.8
2017-12-29T05:19:35.814Z,26.8
2017-12-29T05:20:37.810Z,26.8
2017-12-29T05:21:36.185Z,26.8
2017-12-29T05:22:35.986Z,26.8
2017-12-29T05:23:37.963Z,26.8
2017-12-29T05:24:36.242Z,26.8
2017-12-29T05:25:36.341Z,26.8
2017-12-29T05:26:38.306Z,26.8
2017-12-29T05:27:36.265Z,26.8
2017-12-29T05:28:38.161Z,26.8
2017-12-29T05:29:38.409Z,26.8
2017-12-29T05:30:38.480Z,26.8
2017-12-29T05:31:36.375Z,26.8
2017-12-29T05:32:36.616Z,26.8
2017-12-29T05:33:36.850Z,26.8
2017-12-29T05:34:36.470Z,26.8
2017-12-29T05:35:36.703Z,26.8
2017-12-29T05:36:36.742Z,26.8
2017-12-29T05:37:36.510Z,26.8
2017-12-29T05:38:38.481Z,26.8
2017-12-29T05:39:36.819Z,26.8
2017-12-29T05:40:38.836Z,26.8
2017-12-29T05:41:38.817Z,26.8
2017-12-29T05:42:36.726Z,26.8
2017-12-29T05:43:36.907Z,26.8
2017-12-29T05:44:39.083Z,26.8
2017-12-29T05:45:38.940Z,26.8
2017-12-29T05:46:38.961Z,26.8
2017-12-29T05:47:39.201Z,26.8
2017-12-29T05:48:37.128Z,26.8
2017-12-29T05:49:37.408Z,26.8
2017-12-29T05:50:39.393Z,26.8
2017-12-29T05:51:39.264Z,26.8
2017-12-29T05:52:39.252Z,26.8
2017-12-29T05:53:37.422Z,26.8
2017-12-29T05:54:37.523Z,26.8
2017-12-29T05:55:39.625Z,26.8
2017-12-29T05:56:37.517Z,26.8
2017-12-29T05:57:37.580Z,26.8
2017-12-29T05:58:37.668Z,26.8
2017-12-29T05:59:37.630Z,26.8
2017-12-29T06:00:39.665Z,26.8
2017-12-29T06:01:39.710Z,26.8
2017-12-29T06:02:39.992Z,26.7
2017-12-29T06:03:37.940Z,26.7
2017-12-29T06:04:38.155Z,26.7
2017-12-29T06:05:38.023Z,26.7
2017-12-29T06:06:39.946Z,26.7
2017-12-29T06:07:38.086Z,26.7
2017-12-29T06:08:38.123Z,26.7
2017-12-29T06:09:40.228Z,26.7
2017-12-29T06:10:38.196Z,26.7
2017-12-29T06:11:38.467Z,26.7
2017-12-29T06:12:38.512Z,26.7
2017-12-29T06:13:38.590Z,26.7
2017-12-29T06:14:38.583Z,26.7
2017-12-29T06:15:40.363Z,26.7
2017-12-29T06:16:38.460Z,26.7
2017-12-29T06:17:38.709Z,26.7
2017-12-29T06:18:40.657Z,26.7
2017-12-29T06:19:40.700Z,26.7
2017-12-29T06:20:38.861Z,26.7
2017-12-29T06:21:40.807Z,26.7
2017-12-29T06:22:38.745Z,26.7
2017-12-29T06:23:38.919Z,26.7
2017-12-29T06:24:40.894Z,26.7
2017-12-29T06:25:40.860Z,26.7
2017-12-29T06:26:38.823Z,26.7
2017-12-29T06:27:39.084Z,26.7
2017-12-29T06:28:38.963Z,26.7
2017-12-29T06:29:39.226Z,26.7
2017-12-29T06:30:39.015Z,26.7
2017-12-29T06:31:39.067Z,26.7
2017-12-29T06:32:39.132Z,26.7
2017-12-29T06:33:41.142Z,26.7
2017-12-29T06:34:39.301Z,26.7
2017-12-29T06:35:39.549Z,26.7
2017-12-29T06:36:39.449Z,26.7
2017-12-29T06:37:39.443Z,26.7
2017-12-29T06:38:39.461Z,26.7
2017-12-29T06:39:39.689Z,26.7
2017-12-29T06:40:39.777Z,26.7
2017-12-29T06:41:41.541Z,26.7
2017-12-29T06:42:39.650Z,26.7
2017-12-29T06:43:41.894Z,26.7
2017-12-29T06:44:40.005Z,26.7
2017-12-29T06:45:41.933Z,26.7
2017-12-29T06:46:39.820Z,26.7
2017-12-29T06:47:40.021Z,26.7
2017-12-29T06:48:41.982Z,26.7
2017-12-29T06:49:40.136Z,26.7
2017-12-29T06:50:41.908Z,26.7
2017-12-29T06:51:40.032Z,26.7
2017-12-29T06:52:41.953Z,26.7
2017-12-29T06:53:40.331Z,26.6
2017-12-29T06:54:40.415Z,26.6
2017-12-29T06:55:42.323Z,26.7
2017-12-29T06:56:40.268Z,26.6
2017-12-29T06:57:40.323Z,26.7
2017-12-29T06:58:40.369Z,26.7
2017-12-29T06:59:40.440Z,26.7
2017-12-29T07:00:42.603Z,26.6
2017-12-29T07:01:40.839Z,26.6
2017-12-29T07:02:40.682Z,26.6
2017-12-29T07:03:42.881Z,26.6
2017-12-29T07:04:42.931Z,26.6
2017-12-29T07:05:42.904Z,26.7
2017-12-29T07:06:42.974Z,26.6
2017-12-29T07:07:40.905Z,26.6
2017-12-29T07:08:40.936Z,26.6
2017-12-29T07:09:41.020Z,26.6
2017-12-29T07:10:41.181Z,26.6
2017-12-29T07:11:41.366Z,26.6
2017-12-29T07:12:41.287Z,26.6
2017-12-29T07:13:41.337Z,26.6
2017-12-29T07:14:41.531Z,26.6
2017-12-29T07:15:41.462Z,26.6
2017-12-29T07:16:41.438Z,26.6
2017-12-29T07:17:41.616Z,26.6
2017-12-29T07:18:43.791Z,26.6
2017-12-29T07:19:41.655Z,26.6
2017-12-29T07:20:43.873Z,26.6
2017-12-29T07:21:43.857Z,26.6
2017-12-29T07:22:43.943Z,26.6
2017-12-29T07:23:44.009Z,26.6
2017-12-29T07:24:43.860Z,26.6
2017-12-29T07:25:44.129Z,26.6
2017-12-29T07:26:44.264Z,26.6
2017-12-29T07:27:42.103Z,26.6
2017-12-29T07:28:44.280Z,26.6
2017-12-29T07:29:42.352Z,26.6
2017-12-29T07:30:42.408Z,26.6
2017-12-29T07:31:42.402Z,26.6
2017-12-29T07:32:42.239Z,26.6
2017-12-29T07:33:42.509Z,26.6
2017-12-29T07:34:42.601Z,26.6
2017-12-29T07:35:42.399Z,26.6
2017-12-29T07:36:42.440Z,26.6
2017-12-29T07:37:44.598Z,26.6
2017-12-29T07:38:42.664Z,26.6
2017-12-29T07:39:42.494Z,26.6
2017-12-29T07:40:42.584Z,26.6
2017-12-29T07:41:42.631Z,26.6
2017-12-29T07:42:44.639Z,26.6
2017-12-29T07:43:42.777Z,26.6
2017-12-29T07:44:43.024Z,26.6
2017-12-29T07:45:43.104Z,26.6
2017-12-29T07:46:45.100Z,26.6
2017-12-29T07:47:45.130Z,26.6
2017-12-29T07:48:43.243Z,26.6
2017-12-29T07:49:45.025Z,26.6
2017-12-29T07:50:45.287Z,26.6
2017-12-29T07:51:45.326Z,26.6
2017-12-29T07:52:45.355Z,26.6
2017-12-29T07:53:45.360Z,26.6
2017-12-29T07:54:43.261Z,26.6
2017-12-29T07:55:43.473Z,26.6
2017-12-29T07:56:45.261Z,26.6
2017-12-29T07:57:43.416Z,26.6
2017-12-29T07:58:43.432Z,26.6
2017-12-29T07:59:43.511Z,26.6
2017-12-29T08:00:45.683Z,26.6
2017-12-29T08:01:43.530Z,26.6
2017-12-29T08:02:43.582Z,26.6
2017-12-29T08:03:45.749Z,26.6
2017-12-29T08:04:43.928Z,26.5
2017-12-29T08:05:43.792Z,26.5
2017-12-29T08:06:44.020Z,26.5
2017-12-29T08:07:44.007Z,26.5
2017-12-29T08:08:43.881Z,26.5
2017-12-29T08:09:43.952Z,26.5
2017-12-29T08:10:45.992Z,26.5
2017-12-29T08:11:44.340Z,26.5
2017-12-29T08:12:44.236Z,26.5
2017-12-29T08:13:44.249Z,26.5
2017-12-29T08:14:46.405Z,26.4
2017-12-29T08:15:44.294Z,26.4
2017-12-29T08:16:44.607Z,26.4
2017-12-29T08:17:44.444Z,26.4
2017-12-29T08:18:44.477Z,26.4
2017-12-29T08:19:46.588Z,26.4
2017-12-29T08:20:44.679Z,26.4
2017-12-29T08:21:44.587Z,26.4
2017-12-29T08:22:46.719Z,26.3
2017-12-29T08:23:44.558Z,26.3
2017-12-29T08:24:44.843Z,26.3
2017-12-29T08:25:44.670Z,26.3
2017-12-29T08:26:44.904Z,26.2
2017-12-29T08:27:44.767Z,26.2
2017-12-29T08:28:46.763Z,26.2
2017-12-29T08:29:46.766Z,26.2
2017-12-29T08:30:44.892Z,26.1
2017-12-29T08:31:47.125Z,26.1
2017-12-29T08:32:45.068Z,26.1
2017-12-29T08:33:45.009Z,26
2017-12-29T08:34:45.290Z,26
2017-12-29T08:35:47.330Z,26
2017-12-29T08:36:45.437Z,26
2017-12-29T08:37:45.272Z,26
2017-12-29T08:38:45.508Z,26
2017-12-29T08:39:45.596Z,26
2017-12-29T08:40:45.503Z,26
2017-12-29T08:41:47.468Z,26
2017-12-29T08:42:47.539Z,26
2017-12-29T08:43:47.825Z,26
2017-12-29T08:44:45.800Z,26.1
2017-12-29T08:45:45.788Z,26.1
2017-12-29T08:46:45.862Z,26.1
2017-12-29T08:47:45.866Z,26.1
2017-12-29T08:48:45.956Z,26.1
2017-12-29T08:49:46.204Z,26.1
2017-12-29T08:50:48.168Z,26.1
2017-12-29T08:51:48.184Z,26.2
2017-12-29T08:52:48.028Z,26.1
2017-12-29T08:53:46.148Z,26.2
2017-12-29T08:54:46.396Z,26.2
2017-12-29T08:55:48.481Z,26.2
2017-12-29T08:56:46.526Z,26.2
2017-12-29T08:57:46.550Z,26.2
2017-12-29T08:58:48.592Z,26.2
2017-12-29T08:59:46.452Z,26.2
2017-12-29T09:00:46.455Z,26.2
2017-12-29T09:01:46.710Z,26.2
2017-12-29T09:02:48.672Z,26.2
2017-12-29T09:03:48.476Z,26.2
2017-12-29T09:04:46.727Z,26.3
2017-12-29T09:05:48.720Z,26.2
2017-12-29T09:06:46.834Z,26.2
2017-12-29T09:07:46.952Z,26.2
2017-12-29T09:08:48.867Z,26.2
2017-12-29T09:09:48.760Z,26.2
2017-12-29T09:10:46.929Z,26.2
2017-12-29T09:11:47.117Z,26.2
2017-12-29T09:12:48.883Z,26.2
2017-12-29T09:13:47.064Z,26.3
2017-12-29T09:14:49.300Z,26.3
2017-12-29T09:15:49.164Z,26.3
2017-12-29T09:16:49.444Z,26.3
2017-12-29T09:17:47.576Z,26.3
2017-12-29T09:18:47.630Z,26.3
2017-12-29T09:19:49.651Z,26.3
2017-12-29T09:20:47.569Z,26.3
2017-12-29T09:21:49.740Z,26.3
2017-12-29T09:22:47.829Z,26.3
2017-12-29T09:23:49.756Z,26.3
2017-12-29T09:24:49.594Z,26.3
2017-12-29T09:25:47.878Z,26.3
2017-12-29T09:26:47.757Z,26.3
2017-12-29T09:27:47.756Z,26.3
2017-12-29T09:28:47.979Z,26.3
2017-12-29T09:29:49.768Z,26.3
2017-12-29T09:30:47.900Z,26.2
2017-12-29T09:31:47.994Z,26.3
2017-12-29T09:32:48.211Z,26.3
2017-12-29T09:33:47.985Z,26.3
2017-12-29T09:34:50.158Z,26.2
2017-12-29T09:35:50.215Z,26.2
2017-12-29T09:36:50.312Z,26.2
2017-12-29T09:37:48.137Z,26.2
2017-12-29T09:38:48.236Z,26.2
2017-12-29T09:39:48.307Z,26.2
2017-12-29T09:40:50.482Z,26.2
2017-12-29T09:41:48.655Z,26.2
2017-12-29T09:42:50.367Z,26.3
2017-12-29T09:43:48.661Z,26.3
2017-12-29T09:44:50.667Z,26.3
2017-12-29T09:45:50.516Z,26.2
2017-12-29T09:46:48.584Z,26.3
2017-12-29T09:47:48.651Z,26.2
2017-12-29T09:48:48.930Z,26.3
2017-12-29T09:49:50.908Z,26.2
2017-12-29T09:50:50.977Z,26.2
2017-12-29T09:51:50.844Z,26.2
2017-12-29T09:52:49.125Z,26.2
2017-12-29T09:53:48.945Z,26.2
2017-12-29T09:54:51.111Z,26.2
2017-12-29T09:55:51.191Z,26.3
2017-12-29T09:56:51.001Z,26.2
2017-12-29T09:57:51.075Z,26.3
2017-12-29T09:58:49.387Z,26.3
2017-12-29T09:59:51.397Z,26.2
2017-12-29T10:00:49.276Z,26.2
2017-12-29T10:01:51.490Z,26.2
2017-12-29T10:02:49.349Z,26.2
2017-12-29T10:03:51.627Z,26.2
2017-12-29T10:04:49.738Z,26.2
2017-12-29T10:05:49.747Z,26.2
2017-12-29T10:06:49.779Z,26.2
2017-12-29T10:07:51.721Z,26.2
2017-12-29T10:08:49.616Z,26.2
2017-12-29T10:09:51.762Z,26.2
2017-12-29T10:10:51.584Z,26.2
2017-12-29T10:11:51.858Z,26.2
2017-12-29T10:12:51.920Z,26.2
2017-12-29T10:13:49.786Z,26.2
2017-12-29T10:14:50.018Z,26.2
2017-12-29T10:15:50.091Z,26.2
2017-12-29T10:16:52.083Z,26.2
2017-12-29T10:17:52.195Z,26.2
2017-12-29T10:18:50.278Z,26.2
2017-12-29T10:19:52.305Z,26.2
2017-12-29T10:20:50.455Z,26.2
2017-12-29T10:21:50.229Z,26.2
2017-12-29T10:22:52.469Z,26.2
2017-12-29T10:23:52.565Z,26.2
2017-12-29T10:24:50.524Z,26.2
2017-12-29T10:25:52.473Z,26.1
2017-12-29T10:26:50.636Z,26.1
2017-12-29T10:27:52.798Z,26.1
2017-12-29T10:28:52.881Z,26.1
2017-12-29T10:29:51.072Z,26.1
2017-12-29T10:30:53.042Z,26.1
2017-12-29T10:31:50.972Z,26.1
2017-12-29T10:32:53.009Z,26.1
2017-12-29T10:33:53.234Z,26.1
2017-12-29T10:34:51.129Z,26.1
2017-12-29T10:35:53.324Z,26.1
2017-12-29T10:36:51.243Z,26.1
2017-12-29T10:37:51.302Z,26.1
2017-12-29T10:38:53.511Z,26.1
2017-12-29T10:39:51.474Z,26.1
2017-12-29T10:40:51.744Z,26.1
2017-12-29T10:41:51.506Z,26.1
2017-12-29T10:42:51.612Z,26.1
2017-12-29T10:43:51.822Z,26.1
2017-12-29T10:44:53.837Z,26.1
2017-12-29T10:45:51.977Z,26.1
2017-12-29T10:46:53.756Z,26.1
2017-12-29T10:47:54.041Z,26.1
2017-12-29T10:48:53.756Z,26
2017-12-29T10:49:52.079Z,26
2017-12-29T10:50:51.880Z,26
2017-12-29T10:51:51.952Z,26
2017-12-29T10:52:52.260Z,26
2017-12-29T10:53:54.282Z,26
2017-12-29T10:54:52.210Z,26
2017-12-29T10:55:52.209Z,26
2017-12-29T10:56:54.190Z,26.1
2017-12-29T10:57:52.284Z,26
2017-12-29T10:58:54.512Z,26
2017-12-29T10:59:52.600Z,26
2017-12-29T11:00:54.556Z,26
2017-12-29T11:01:52.507Z,26
2017-12-29T11:02:54.458Z,26
2017-12-29T11:03:52.656Z,26
2017-12-29T11:04:54.869Z,26
2017-12-29T11:05:52.775Z,26
2017-12-29T11:06:52.986Z,26
2017-12-29T11:07:54.932Z,26
2017-12-29T11:08:54.990Z,26
2017-12-29T11:09:52.955Z,26
2017-12-29T11:10:52.947Z,26
2017-12-29T11:11:52.983Z,26
2017-12-29T11:12:53.092Z,26
2017-12-29T11:13:53.181Z,26
2017-12-29T11:14:55.415Z,26
2017-12-29T11:15:53.429Z,26
2017-12-29T11:16:53.351Z,26
2017-12-29T11:17:55.552Z,26
2017-12-29T11:18:53.675Z,26
2017-12-29T11:19:53.504Z,26
2017-12-29T11:20:53.546Z,26
2017-12-29T11:21:53.786Z,26
2017-12-29T11:22:53.863Z,26
2017-12-29T11:23:53.716Z,26
2017-12-29T11:24:53.764Z,26
2017-12-29T11:25:53.847Z,26
2017-12-29T11:26:53.906Z,26
2017-12-29T11:27:54.098Z,26
2017-12-29T11:28:54.110Z,26
2017-12-29T11:29:53.962Z,26
2017-12-29T11:30:53.998Z,26
2017-12-29T11:31:55.949Z,26
2017-12-29T11:32:56.015Z,26
2017-12-29T11:33:56.076Z,26
2017-12-29T11:34:56.348Z,26
2017-12-29T11:35:56.428Z,26
2017-12-29T11:36:54.390Z,26
2017-12-29T11:37:54.617Z,26
2017-12-29T11:38:54.683Z,26
2017-12-29T11:39:54.750Z,26
2017-12-29T11:40:54.625Z,26
2017-12-29T11:41:54.664Z,26
2017-12-29T11:42:56.881Z,26
2017-12-29T11:43:54.809Z,26
2017-12-29T11:44:54.816Z,26
2017-12-29T11:45:56.979Z,26
2017-12-29T11:46:54.929Z,26
2017-12-29T11:47:55.195Z,25.9
2017-12-29T11:48:56.943Z,25.9
2017-12-29T11:49:57.025Z,25.9
2017-12-29T11:50:57.082Z,25.9
2017-12-29T11:51:55.456Z,25.9
2017-12-29T11:52:55.489Z,25.9
2017-12-29T11:53:55.310Z,25.9
2017-12-29T11:54:55.399Z,25.9
2017-12-29T11:55:55.478Z,25.9
2017-12-29T11:56:57.463Z,25.9
2017-12-29T11:57:55.770Z,25.9
2017-12-29T11:58:55.628Z,25.9
2017-12-29T11:59:55.717Z,25.9
2017-12-29T12:00:57.692Z,25.9
2017-12-29T12:01:55.843Z,25.9
2017-12-29T12:02:55.893Z,25.9
2017-12-29T12:03:58.109Z,25.9
2017-12-29T12:04:58.099Z,25.9
2017-12-29T12:05:58.165Z,25.9
2017-12-29T12:06:58.349Z,25.9
2017-12-29T12:07:58.289Z,25.9
2017-12-29T12:08:58.169Z,25.9
2017-12-29T12:09:58.441Z,25.9
2017-12-29T12:10:58.502Z,25.9
2017-12-29T12:11:56.539Z,25.9
2017-12-29T12:12:56.389Z,25.9
2017-12-29T12:13:56.672Z,25.9
2017-12-29T12:14:56.490Z,25.9
2017-12-29T12:15:56.574Z,25.9
2017-12-29T12:16:56.607Z,25.9
2017-12-29T12:17:58.788Z,25.9
2017-12-29T12:18:56.889Z,25.9
2017-12-29T12:19:58.880Z,25.9
2017-12-29T12:20:58.921Z,25.9
2017-12-29T12:21:56.882Z,25.9
2017-12-29T12:22:58.769Z,26
2017-12-29T12:23:59.028Z,25.9
2017-12-29T12:24:56.908Z,25.9
2017-12-29T12:25:56.965Z,25.9
2017-12-29T12:26:57.207Z,25.9
2017-12-29T12:27:57.301Z,25.9
2017-12-29T12:28:57.396Z,25.8
2017-12-29T12:29:57.487Z,25.8
2017-12-29T12:30:57.320Z,25.8
2017-12-29T12:31:57.617Z,25.8
2017-12-29T12:32:59.387Z,25.7
2017-12-29T12:33:59.744Z,25.7
2017-12-29T12:34:59.480Z,25.7
2017-12-29T12:35:59.781Z,25.7
2017-12-29T12:36:59.581Z,25.7
2017-12-29T12:37:57.909Z,25.8
2017-12-29T12:38:59.926Z,25.7
2017-12-29T12:39:57.842Z,25.7
2017-12-29T12:40:57.928Z,25.7
2017-12-29T12:42:00.132Z,25.8
2017-12-29T12:42:58.221Z,25.7
2017-12-29T12:43:58.238Z,25.7
2017-12-29T12:45:00.178Z,25.7
2017-12-29T12:45:58.077Z,25.7
2017-12-29T12:46:58.141Z,25.7
2017-12-29T12:47:58.170Z,25.7
2017-12-29T12:49:00.367Z,25.7
2017-12-29T12:50:00.227Z,25.7
2017-12-29T12:50:58.394Z,25.7
2017-12-29T12:51:58.481Z,25.7
2017-12-29T12:53:00.445Z,25.8
2017-12-29T12:53:58.543Z,25.7
2017-12-29T12:55:00.517Z,25.7
2017-12-29T12:55:58.702Z,25.7
2017-12-29T12:57:00.659Z,25.7
2017-12-29T12:57:58.743Z,25.7
2017-12-29T12:58:59.047Z,25.7
2017-12-29T12:59:59.114Z,25.7
2017-12-29T13:00:59.169Z,25.7
2017-12-29T13:02:01.148Z,25.7
2017-12-29T13:02:59.099Z,25.7
2017-12-29T13:03:59.170Z,25.7
2017-12-29T13:05:01.317Z,25.7
2017-12-29T13:05:59.184Z,25.7
2017-12-29T13:07:01.473Z,25.7
2017-12-29T13:08:01.200Z,25.7
2017-12-29T13:08:59.342Z,25.7
2017-12-29T13:09:59.435Z,25.7
2017-12-29T13:10:59.498Z,25.7
2017-12-29T13:12:01.675Z,25.7
2017-12-29T13:12:59.773Z,25.7
2017-12-29T13:14:01.754Z,25.7
2017-12-29T13:15:01.821Z,25.7
2017-12-29T13:15:59.936Z,25.7
2017-12-29T13:17:01.948Z,25.7
2017-12-29T13:18:02.029Z,25.7
2017-12-29T13:19:02.019Z,25.7
2017-12-29T13:19:59.943Z,25.7
2017-12-29T13:21:00.260Z,25.7
2017-12-29T13:21:59.986Z,25.7
2017-12-29T13:23:00.056Z,25.7
2017-12-29T13:24:00.034Z,25.7
2017-12-29T13:25:00.270Z,25.7
2017-12-29T13:26:00.364Z,25.7
2017-12-29T13:27:00.514Z,25.7
2017-12-29T13:28:00.568Z,25.7
2017-12-29T13:29:00.601Z,25.7
2017-12-29T13:30:02.600Z,25.7
2017-12-29T13:31:00.432Z,25.7
2017-12-29T13:32:02.564Z,25.7
2017-12-29T13:33:02.608Z,25.7
2017-12-29T13:34:00.448Z,25.7
2017-12-29T13:35:00.718Z,25.6
2017-12-29T13:36:00.705Z,25.6